createdAt,value
2022-09-12T00:01:23.390Z,99.90
2022-09-12T00:03:55.775Z,99.90
2022-09-12T00:06:27.023Z,99.90
2022-09-12T00:08:57.509Z,99.90
2022-09-12T00:11:26.027Z,99.90
2022-09-12T00:13:57.666Z,99.90
2022-09-12T00:16:29.609Z,99.90
2022-09-12T00:18:59.266Z,99.90
2022-09-12T00:21:28.213Z,99.90
2022-09-12T00:23:56.678Z,99.90
2022-09-12T00:26:24.744Z,99.90
2022-09-12T00:28:53.247Z,99.90
2022-09-12T00:31:24.967Z,99.90
2022-09-12T00:33:55.863Z,99.90
2022-09-12T00:36:26.866Z,99.90
2022-09-12T00:38:55.621Z,99.90
2022-09-12T00:41:26.564Z,99.90
2022-09-12T00:43:57.099Z,99.90
2022-09-12T00:46:40.162Z,99.90
2022-09-12T00:49:16.000Z,99.90
2022-09-12T00:51:52.118Z,99.90
2022-09-12T00:54:31.136Z,99.90
2022-09-12T00:57:07.528Z,99.90
2022-09-12T00:59:42.462Z,99.90
2022-09-12T01:02:11.121Z,99.90
2022-09-12T01:04:43.125Z,99.90
2022-09-12T01:07:15.286Z,99.90
2022-09-12T01:09:45.174Z,99.90
2022-09-12T01:12:15.446Z,99.90
2022-09-12T01:14:43.886Z,99.90
2022-09-12T01:17:14.883Z,99.90
2022-09-12T01:20:30.249Z,99.90
2022-09-12T01:23:37.212Z,99.90
2022-09-12T01:26:38.402Z,99.90
2022-09-12T01:29:36.249Z,99.90
2022-09-12T01:32:16.608Z,99.90
2022-09-12T01:34:52.182Z,99.90
2022-09-12T01:37:34.166Z,99.90
2022-09-12T01:40:15.818Z,99.90
2022-09-12T01:42:54.643Z,99.90
2022-09-12T01:45:31.196Z,99.90
2022-09-12T01:48:06.661Z,99.90
2022-09-12T01:50:44.606Z,99.90
2022-09-12T01:53:21.197Z,99.90
2022-09-12T01:55:57.416Z,99.90
2022-09-12T01:58:34.815Z,99.90
2022-09-12T02:01:11.441Z,99.90
2022-09-12T02:03:45.803Z,99.90
2022-09-12T02:06:21.576Z,99.90
2022-09-12T02:08:53.922Z,99.90
2022-09-12T02:11:23.334Z,99.90
2022-09-12T02:13:57.295Z,99.90
2022-09-12T02:16:33.214Z,99.90
2022-09-12T02:19:11.031Z,99.90
2022-09-12T02:21:46.851Z,99.90
2022-09-12T02:24:18.310Z,99.90
2022-09-12T02:26:53.354Z,99.90
2022-09-12T02:29:21.450Z,99.90
2022-09-12T02:31:55.423Z,99.90
2022-09-12T02:34:39.833Z,99.90
2022-09-12T02:37:26.105Z,99.90
2022-09-12T02:39:55.259Z,99.90
2022-09-12T02:42:24.834Z,99.90
2022-09-12T02:44:56.668Z,99.90
2022-09-12T02:47:31.952Z,99.90
2022-09-12T02:50:01.800Z,99.90
2022-09-12T02:52:30.733Z,99.90
2022-09-12T02:55:00.450Z,99.90
2022-09-12T02:57:28.531Z,99.90
2022-09-12T03:00:01.107Z,99.90
2022-09-12T03:02:42.460Z,99.90
2022-09-12T03:05:27.746Z,99.90
2022-09-12T03:08:47.229Z,99.90
2022-09-12T03:11:49.808Z,99.90
2022-09-12T03:14:40.703Z,99.90
2022-09-12T03:17:22.682Z,99.90
2022-09-12T03:20:00.534Z,99.90
2022-09-12T03:22:37.997Z,99.90
2022-09-12T03:25:17.983Z,99.90
2022-09-12T03:27:55.161Z,99.90
2022-09-12T03:30:23.159Z,99.90
2022-09-12T03:32:54.819Z,99.90
2022-09-12T03:35:25.756Z,99.90
2022-09-12T03:37:55.174Z,99.90
2022-09-12T03:40:23.230Z,99.90
2022-09-12T03:42:51.174Z,99.90
2022-09-12T03:45:19.338Z,99.90
2022-09-12T03:47:47.301Z,99.90
2022-09-12T03:50:15.426Z,99.90
2022-09-12T03:52:43.427Z,99.90
2022-09-12T03:55:13.243Z,99.90
2022-09-12T03:57:41.365Z,99.90
2022-09-12T04:00:10.979Z,99.90
2022-09-12T04:02:39.047Z,99.90
2022-09-12T04:05:07.593Z,99.90
2022-09-12T04:07:35.683Z,99.90
2022-09-12T04:10:04.065Z,99.90
2022-09-12T04:12:35.433Z,99.90
2022-09-12T04:15:03.494Z,99.90
2022-09-12T04:17:31.481Z,99.90
2022-09-12T04:19:59.425Z,99.90
2022-09-12T04:22:27.655Z,99.90
2022-09-12T04:24:55.693Z,99.90
2022-09-12T04:27:23.600Z,99.90
2022-09-12T04:29:54.717Z,99.90
2022-09-12T04:32:22.954Z,99.90
2022-09-12T04:34:52.302Z,99.90
2022-09-12T04:37:21.140Z,99.90
2022-09-12T04:39:49.711Z,99.90
2022-09-12T04:42:18.211Z,99.90
2022-09-12T04:44:46.399Z,99.90
2022-09-12T04:47:16.759Z,99.90
2022-09-12T04:49:44.805Z,99.90
2022-09-12T04:52:12.924Z,99.90
2022-09-12T04:54:41.241Z,99.90
2022-09-12T04:57:09.388Z,99.90
2022-09-12T04:59:37.429Z,99.90
2022-09-12T05:02:05.863Z,99.90
2022-09-12T05:04:35.934Z,99.90
2022-09-12T05:07:05.798Z,99.90
2022-09-12T05:09:33.776Z,99.90
2022-09-12T05:12:05.492Z,99.90
2022-09-12T05:14:35.172Z,99.90
2022-09-12T05:17:05.985Z,99.90
2022-09-12T05:19:35.977Z,99.90
2022-09-12T05:22:04.988Z,99.90
2022-09-12T05:24:33.227Z,99.90
2022-09-12T05:27:02.259Z,99.90
2022-09-12T05:29:30.445Z,99.90
2022-09-12T05:31:58.473Z,99.90
2022-09-12T05:34:27.788Z,99.90
2022-09-12T05:36:57.174Z,99.90
2022-09-12T05:39:25.570Z,99.90
2022-09-12T05:41:54.254Z,99.90
2022-09-12T05:44:22.182Z,99.90
2022-09-12T05:46:51.307Z,99.90
2022-09-12T05:49:19.360Z,99.90
2022-09-12T05:51:47.525Z,99.90
2022-09-12T05:54:20.533Z,99.90
2022-09-12T05:56:49.230Z,99.90
2022-09-12T05:59:20.118Z,99.90
2022-09-12T06:01:49.491Z,99.90
2022-09-12T06:04:18.067Z,99.90
2022-09-12T06:06:47.368Z,99.90
2022-09-12T06:09:19.040Z,99.90
2022-09-12T06:11:47.929Z,99.90
2022-09-12T06:14:17.786Z,99.90
2022-09-12T06:16:46.234Z,99.90
2022-09-12T06:19:17.773Z,99.90
2022-09-12T06:21:46.389Z,99.90
2022-09-12T06:24:16.126Z,99.90
2022-09-12T06:26:44.454Z,99.90
2022-09-12T06:29:13.241Z,99.90
2022-09-12T06:31:43.867Z,99.90
2022-09-12T06:34:15.960Z,99.90
2022-09-12T06:36:46.505Z,99.90
2022-09-12T06:39:18.313Z,99.90
2022-09-12T06:41:47.538Z,99.90
2022-09-12T06:44:19.281Z,99.90
2022-09-12T06:46:47.826Z,99.90
2022-09-12T06:49:17.472Z,99.90
2022-09-12T06:51:45.614Z,99.90
2022-09-12T06:54:15.671Z,99.90
2022-09-12T06:56:45.993Z,99.90
2022-09-12T06:59:13.978Z,99.90
2022-09-12T07:01:42.468Z,99.90
2022-09-12T07:04:11.399Z,99.90
2022-09-12T07:06:43.946Z,99.90
2022-09-12T07:09:16.994Z,99.90
2022-09-12T07:11:48.083Z,99.90
2022-09-12T07:14:16.802Z,99.90
2022-09-12T07:16:45.117Z,99.90
2022-09-12T07:19:13.857Z,99.90
2022-09-12T07:21:42.087Z,99.90
2022-09-12T07:24:11.365Z,99.90
2022-09-12T07:26:41.997Z,99.90
2022-09-12T07:32:05.803Z,99.90
2022-09-12T07:34:34.208Z,99.90
2022-09-12T07:37:02.149Z,99.90
2022-09-12T07:39:30.193Z,99.90
2022-09-12T07:41:58.629Z,99.90
2022-09-12T07:44:28.189Z,99.90
2022-09-12T07:46:56.187Z,99.90
2022-09-12T07:49:24.197Z,99.90
2022-09-12T07:51:52.119Z,99.90
2022-09-12T07:54:20.183Z,99.90
2022-09-12T07:56:48.150Z,99.90
2022-09-12T07:59:35.302Z,99.90
2022-09-12T08:02:06.763Z,99.90
2022-09-12T08:04:36.345Z,99.90
2022-09-12T08:07:04.520Z,99.90
2022-09-12T08:09:32.654Z,99.90
2022-09-12T08:12:00.716Z,99.90
2022-09-12T08:14:29.630Z,99.90
2022-09-12T08:16:57.628Z,99.90
2022-09-12T08:19:27.063Z,99.90
2022-09-12T08:21:54.973Z,99.90
2022-09-12T08:24:23.198Z,99.90
2022-09-12T08:26:51.274Z,99.90
2022-09-12T08:29:19.789Z,99.90
2022-09-12T08:31:48.034Z,99.90
2022-09-12T08:34:17.027Z,99.90
2022-09-12T08:36:46.367Z,99.90
2022-09-12T08:39:15.325Z,99.90
2022-09-12T08:41:46.074Z,99.90
2022-09-12T08:44:37.699Z,99.90
2022-09-12T08:47:22.095Z,99.90
2022-09-12T08:50:01.961Z,99.90
2022-09-12T08:52:40.041Z,99.90
2022-09-12T08:55:33.189Z,99.90
2022-09-12T08:58:08.181Z,99.90
2022-09-12T09:00:48.287Z,99.90
2022-09-12T09:03:57.104Z,99.90
2022-09-12T09:06:53.524Z,99.90
2022-09-12T09:09:36.514Z,99.90
2022-09-12T09:12:18.683Z,99.90
2022-09-12T09:15:14.610Z,99.90
2022-09-12T09:17:46.306Z,99.90
2022-09-12T09:20:28.784Z,99.90
2022-09-12T09:23:04.444Z,99.90
2022-09-12T09:25:46.610Z,99.90
2022-09-12T09:28:21.904Z,99.90
2022-09-12T09:30:50.986Z,99.90
2022-09-12T09:33:24.139Z,99.90
2022-09-12T09:36:06.328Z,99.90
2022-09-12T09:38:49.410Z,99.90
2022-09-12T09:41:48.667Z,99.90
2022-09-12T09:44:17.803Z,99.90
2022-09-12T09:46:45.879Z,99.90
2022-09-12T09:49:16.452Z,99.90
2022-09-12T09:51:44.839Z,99.90
2022-09-12T09:54:24.244Z,99.90
2022-09-12T09:56:53.866Z,99.90
2022-09-12T09:59:28.853Z,99.90
2022-09-12T10:02:03.553Z,99.90
2022-09-12T10:04:40.600Z,99.90
2022-09-12T10:07:21.085Z,99.90
2022-09-12T10:10:15.359Z,99.90
2022-09-12T10:12:45.394Z,99.90
2022-09-12T10:15:21.392Z,99.90
2022-09-12T10:17:52.518Z,99.90
2022-09-12T10:20:36.068Z,99.90
2022-09-12T10:23:34.801Z,99.90
2022-09-12T10:26:10.438Z,99.90
2022-09-12T10:28:44.431Z,99.90
2022-09-12T10:31:29.113Z,99.90
2022-09-12T10:34:00.835Z,99.90
2022-09-12T10:36:38.849Z,99.90
2022-09-12T10:39:08.311Z,99.90
2022-09-12T10:41:38.882Z,99.90
2022-09-12T10:44:16.990Z,99.90
2022-09-12T10:46:45.689Z,99.90
2022-09-12T10:49:26.585Z,99.90
2022-09-12T10:51:56.777Z,99.90
2022-09-12T10:54:28.959Z,99.90
2022-09-12T10:57:51.774Z,99.90
2022-09-12T11:00:27.877Z,99.90
2022-09-12T11:03:17.311Z,99.90
2022-09-12T11:05:57.648Z,99.90
2022-09-12T11:08:48.507Z,99.90
2022-09-12T11:11:40.140Z,99.90
2022-09-12T11:14:34.309Z,99.90
2022-09-12T11:17:17.569Z,99.90
2022-09-12T11:20:49.229Z,99.90
2022-09-12T11:23:48.358Z,99.90
2022-09-12T11:26:42.439Z,99.90
2022-09-12T11:29:22.202Z,99.90
2022-09-12T11:32:13.783Z,99.90
2022-09-12T11:34:58.189Z,99.90
2022-09-12T11:37:55.507Z,99.90
2022-09-12T11:40:33.826Z,99.90
2022-09-12T11:43:08.383Z,99.90
2022-09-12T11:45:45.575Z,99.90
2022-09-12T11:48:28.432Z,99.90
2022-09-12T11:50:57.819Z,99.90
2022-09-12T11:53:37.088Z,99.90
2022-09-12T11:56:15.310Z,99.90
2022-09-12T11:58:47.720Z,99.90
2022-09-12T12:01:23.020Z,99.90
2022-09-12T12:03:55.437Z,99.90
2022-09-12T12:06:33.203Z,99.90
2022-09-12T12:09:01.337Z,99.90
2022-09-12T12:11:35.328Z,99.90
2022-09-12T12:14:08.769Z,99.90
2022-09-12T12:16:40.527Z,99.90
2022-09-12T12:19:32.519Z,99.90
2022-09-12T12:22:13.801Z,99.90
2022-09-12T12:25:09.196Z,99.90
2022-09-12T12:27:55.148Z,99.90
2022-09-12T12:31:03.148Z,99.90
2022-09-12T12:34:02.846Z,99.90
2022-09-12T12:36:40.397Z,99.90
2022-09-12T12:40:03.927Z,99.90
2022-09-12T12:43:32.212Z,99.90
2022-09-12T12:46:16.041Z,99.90
2022-09-12T12:49:23.424Z,99.90
2022-09-12T12:52:03.040Z,99.30
2022-09-12T12:54:54.808Z,99.90
2022-09-12T12:57:48.490Z,99.90
2022-09-12T13:00:32.201Z,99.90
2022-09-12T13:03:11.036Z,99.90
2022-09-12T13:05:47.637Z,99.90
2022-09-12T13:08:32.296Z,99.90
2022-09-12T13:11:08.544Z,99.90
2022-09-12T13:13:42.685Z,99.90
2022-09-12T13:16:12.476Z,99.90
2022-09-12T13:18:46.513Z,99.90
2022-09-12T13:21:17.300Z,99.90
2022-09-12T13:24:01.075Z,99.90
2022-09-12T13:26:33.622Z,99.90
2022-09-12T13:29:12.719Z,99.90
2022-09-12T13:31:47.465Z,99.90
2022-09-12T13:34:23.179Z,99.90
2022-09-12T13:37:23.860Z,99.00
2022-09-12T13:40:05.623Z,96.80
2022-09-12T13:42:42.499Z,98.70
2022-09-12T13:45:21.906Z,98.70
2022-09-12T13:47:58.534Z,99.20
2022-09-12T13:50:31.769Z,99.70
2022-09-12T13:53:06.823Z,98.90
2022-09-12T13:55:41.540Z,97.60
2022-09-12T13:58:21.534Z,96.80
2022-09-12T14:01:03.119Z,95.50
2022-09-12T14:03:54.683Z,97.00
2022-09-12T14:06:27.583Z,98.10
2022-09-12T14:09:00.189Z,98.20
2022-09-12T14:11:33.759Z,98.00
2022-09-12T14:14:07.466Z,97.80
2022-09-12T14:16:41.379Z,97.90
2022-09-12T14:19:12.155Z,98.10
2022-09-12T14:21:40.731Z,98.00
2022-09-12T14:24:13.868Z,97.60
2022-09-12T14:26:45.413Z,97.20
2022-09-12T14:29:17.753Z,96.50
2022-09-12T14:32:24.177Z,96.00
2022-09-12T14:35:19.731Z,93.10
2022-09-12T14:37:52.379Z,94.90
2022-09-12T14:40:23.514Z,96.30
2022-09-12T14:42:56.966Z,96.50
2022-09-12T14:45:33.280Z,96.30
2022-09-12T14:48:01.392Z,95.60
2022-09-12T14:50:37.160Z,95.20
2022-09-12T14:53:08.292Z,95.70
2022-09-12T14:55:46.296Z,95.40
2022-09-12T14:58:28.126Z,94.00
2022-09-12T15:01:03.764Z,93.10
2022-09-12T15:03:35.843Z,94.50
2022-09-12T15:06:07.885Z,95.00
2022-09-12T15:08:36.320Z,94.90
2022-09-12T15:11:07.937Z,94.50
2022-09-12T15:13:43.228Z,94.30
2022-09-12T15:16:13.226Z,93.80
2022-09-12T15:18:41.319Z,94.00
2022-09-12T15:21:14.994Z,94.40
2022-09-12T15:23:46.803Z,94.00
2022-09-12T15:26:17.772Z,94.00
2022-09-12T15:28:47.687Z,93.60
2022-09-12T15:31:26.020Z,93.40
2022-09-12T15:33:55.691Z,93.30
2022-09-12T15:36:27.501Z,93.20
2022-09-12T15:38:55.663Z,93.10
2022-09-12T15:41:32.592Z,93.20
2022-09-12T15:44:02.345Z,93.20
2022-09-12T15:46:30.879Z,93.20
2022-09-12T15:48:59.046Z,93.10
2022-09-12T15:51:27.663Z,93.00
2022-09-12T15:53:56.231Z,92.90
2022-09-12T15:56:24.533Z,92.70
2022-09-12T15:58:59.374Z,92.60
2022-09-12T16:01:30.266Z,92.30
2022-09-12T16:03:59.041Z,92.10
2022-09-12T16:06:27.802Z,92.00
2022-09-12T16:08:56.155Z,92.10
2022-09-12T16:11:27.877Z,92.10
2022-09-12T16:13:58.050Z,91.60
2022-09-12T16:16:26.195Z,91.60
2022-09-12T16:18:55.683Z,91.60
2022-09-12T16:21:56.764Z,91.40
2022-09-12T16:24:42.775Z,91.40
2022-09-12T16:27:10.987Z,91.50
2022-09-12T16:29:39.454Z,91.40
2022-09-12T16:32:07.940Z,91.50
2022-09-12T16:34:39.962Z,91.40
2022-09-12T16:37:08.021Z,91.30
2022-09-12T16:39:36.264Z,91.30
2022-09-12T16:42:05.139Z,91.30
2022-09-12T16:44:33.185Z,91.10
2022-09-12T16:47:01.196Z,91.20
2022-09-12T16:49:32.343Z,91.20
2022-09-12T16:52:01.923Z,91.20
2022-09-12T16:54:30.257Z,91.20
2022-09-12T16:57:00.547Z,91.20
2022-09-12T16:59:28.550Z,91.30
2022-09-12T17:01:56.564Z,91.40
2022-09-12T17:04:24.575Z,91.50
2022-09-12T17:06:52.585Z,91.60
2022-09-12T17:09:22.387Z,91.70
2022-09-12T17:11:50.448Z,91.70
2022-09-12T17:14:18.454Z,91.80
2022-09-12T17:16:51.669Z,91.90
2022-09-12T17:19:22.867Z,92.00
2022-09-12T17:21:50.994Z,92.10
2022-09-12T17:24:21.147Z,92.10
2022-09-12T17:26:49.276Z,92.10
2022-09-12T17:29:17.974Z,92.10
2022-09-12T17:31:46.779Z,92.10
2022-09-12T17:34:16.393Z,92.20
2022-09-12T17:36:45.603Z,92.20
2022-09-12T17:39:15.042Z,92.30
2022-09-12T17:41:45.928Z,92.20
2022-09-12T17:44:15.965Z,92.20
2022-09-12T17:46:44.383Z,92.10
2022-09-12T17:49:15.821Z,92.10
2022-09-12T17:51:45.317Z,92.20
2022-09-12T17:54:16.813Z,92.50
2022-09-12T17:56:49.630Z,92.60
2022-09-12T17:59:21.326Z,92.80
2022-09-12T18:02:18.894Z,92.90
2022-09-12T18:04:48.366Z,92.90
2022-09-12T18:07:18.858Z,93.10
2022-09-12T18:09:47.660Z,93.20
2022-09-12T18:12:19.939Z,93.30
2022-09-12T18:14:47.946Z,93.40
2022-09-12T18:17:16.035Z,93.40
2022-09-12T18:19:44.394Z,93.40
2022-09-12T18:22:12.850Z,93.40
2022-09-12T18:24:41.243Z,93.50
2022-09-12T18:27:09.234Z,93.60
2022-09-12T18:29:38.531Z,93.60
2022-09-12T18:32:07.829Z,93.70
2022-09-12T18:34:36.186Z,93.70
2022-09-12T18:37:05.235Z,93.90
2022-09-12T18:39:33.214Z,94.00
2022-09-12T18:42:01.167Z,94.10
2022-09-12T18:44:29.209Z,94.20
2022-09-12T18:46:58.563Z,94.30
2022-09-12T18:49:26.642Z,94.40
2022-09-12T18:51:54.662Z,94.50
2022-09-12T18:54:22.682Z,94.60
2022-09-12T18:56:50.648Z,94.60
2022-09-12T18:59:18.805Z,94.70
2022-09-12T19:01:47.189Z,94.80
2022-09-12T19:04:16.895Z,94.90
2022-09-12T19:06:48.262Z,95.00
2022-09-12T19:09:20.506Z,95.00
2022-09-12T19:11:52.555Z,95.10
2022-09-12T19:14:23.685Z,95.30
2022-09-12T19:16:53.072Z,95.40
2022-09-12T19:19:23.404Z,95.40
2022-09-12T19:21:51.476Z,95.40
2022-09-12T19:24:21.581Z,95.40
2022-09-12T19:26:50.679Z,95.40
2022-09-12T19:29:18.908Z,95.50
2022-09-12T19:31:47.374Z,95.50
2022-09-12T19:34:16.365Z,95.60
2022-09-12T19:36:47.316Z,95.70
2022-09-12T19:39:17.165Z,95.70
2022-09-12T19:41:45.862Z,95.80
2022-09-12T19:44:14.111Z,95.90
2022-09-12T19:46:42.318Z,96.00
2022-09-12T19:49:12.755Z,96.10
2022-09-12T19:51:41.529Z,96.30
2022-09-12T19:54:11.306Z,96.50
2022-09-12T19:56:39.376Z,96.60
2022-09-12T19:59:07.467Z,96.70
2022-09-12T20:01:37.037Z,96.80
2022-09-12T20:04:06.564Z,96.80
2022-09-12T20:06:34.870Z,97.00
2022-09-12T20:09:03.154Z,97.10
2022-09-12T20:11:32.512Z,97.20
2022-09-12T20:14:00.765Z,97.30
2022-09-12T20:16:30.046Z,97.30
2022-09-12T20:19:00.869Z,97.40
2022-09-12T20:21:35.825Z,97.40
2022-09-12T20:24:07.082Z,97.40
2022-09-12T20:26:37.004Z,97.40
2022-09-12T20:29:06.556Z,97.50
2022-09-12T20:31:36.336Z,97.50
2022-09-12T20:34:06.075Z,97.70
2022-09-12T20:36:34.898Z,97.80
2022-09-12T20:39:03.102Z,97.80
2022-09-12T20:41:34.095Z,97.90
2022-09-12T20:44:04.083Z,97.90
2022-09-12T20:46:33.004Z,98.00
2022-09-12T20:49:01.244Z,97.90
2022-09-12T20:51:30.363Z,97.90
2022-09-12T20:54:00.258Z,98.00
2022-09-12T20:56:30.940Z,98.00
2022-09-12T20:58:59.728Z,98.00
2022-09-12T21:01:31.237Z,98.00
2022-09-12T21:04:01.464Z,98.10
2022-09-12T21:06:29.990Z,98.30
2022-09-12T21:09:00.400Z,98.30
2022-09-12T21:11:29.428Z,98.40
2022-09-12T21:13:58.046Z,98.50
2022-09-12T21:16:28.002Z,98.60
2022-09-12T21:18:58.708Z,98.80
2022-09-12T21:21:27.469Z,98.90
2022-09-12T21:23:59.596Z,98.80
2022-09-12T21:26:28.299Z,98.70
2022-09-12T21:28:56.915Z,98.70
2022-09-12T21:31:26.555Z,98.60
2022-09-12T21:33:55.964Z,98.70
2022-09-12T21:36:25.414Z,98.80
2022-09-12T21:38:53.374Z,98.70
2022-09-12T21:41:21.464Z,98.70
2022-09-12T21:43:49.797Z,98.70
2022-09-12T21:46:18.479Z,98.70
2022-09-12T21:48:46.466Z,98.80
2022-09-12T21:51:15.849Z,98.90
2022-09-12T21:53:44.257Z,99.00
2022-09-12T21:56:12.233Z,99.10
2022-09-12T21:58:40.290Z,99.10
2022-09-12T22:01:09.391Z,99.20
2022-09-12T22:03:37.599Z,99.20
2022-09-12T22:06:07.736Z,99.20
2022-09-12T22:08:38.801Z,99.10
2022-09-12T22:11:09.573Z,99.20
2022-09-12T22:13:39.289Z,99.20
2022-09-12T22:16:08.525Z,99.30
2022-09-12T22:18:38.055Z,99.30
2022-09-12T22:21:12.288Z,99.30
2022-09-12T22:23:59.546Z,99.40
2022-09-12T22:26:29.159Z,99.50
2022-09-12T22:28:57.459Z,99.50
2022-09-12T22:31:26.909Z,99.60
2022-09-12T22:33:57.269Z,99.80
2022-09-12T22:36:29.215Z,99.70
2022-09-12T22:39:01.010Z,99.70
2022-09-12T22:41:29.103Z,99.70
2022-09-12T22:43:58.297Z,99.80
2022-09-12T22:46:27.396Z,99.80
2022-09-12T22:48:55.875Z,99.90
2022-09-12T22:51:23.987Z,99.90
2022-09-12T22:53:52.369Z,99.90
2022-09-12T22:56:22.459Z,99.90
2022-09-12T22:58:50.761Z,99.90
2022-09-12T23:01:19.077Z,99.90
2022-09-12T23:03:47.228Z,99.90
2022-09-12T23:06:15.301Z,99.90
2022-09-12T23:08:44.317Z,99.90
2022-09-12T23:11:15.965Z,99.90
2022-09-12T23:13:48.595Z,99.90
2022-09-12T23:16:20.050Z,99.90
2022-09-12T23:18:49.051Z,99.90
2022-09-12T23:21:19.985Z,99.90
2022-09-12T23:23:48.467Z,99.90
2022-09-12T23:26:19.926Z,99.90
2022-09-12T23:28:54.747Z,99.90
2022-09-12T23:31:24.802Z,99.90
2022-09-12T23:33:54.560Z,99.90
2022-09-12T23:36:23.783Z,99.90
2022-09-12T23:38:53.345Z,99.90
2022-09-12T23:41:23.345Z,99.90
2022-09-12T23:43:52.876Z,99.90
2022-09-12T23:46:22.399Z,99.90
2022-09-12T23:48:50.587Z,99.90
2022-09-12T23:51:18.765Z,99.90
2022-09-12T23:53:46.786Z,99.90
2022-09-12T23:56:14.763Z,99.90
2022-09-12T23:58:43.173Z,99.90
